Time;durP1;ratioP1;P1;durP2;ratioP2;P2;SDS_P1;SDS_P2;PMS_P1;PMS_P2;Temp;Humidity;BMP_temperature;BMP_pressure;BME280_temperature;BME280_humidity;BME280_pressure;Samples;Min_cycle;Max_cycle;Signal;HPM_P1;HPM_P2
2024/02/17 00:03:23;;;;;;;;;;;;;;;17.91;49.17;100391.75;10198795;28;933;-71
2024/02/17 00:08:19;;;;;;;;;;;;;;;17.88;49.00;100399.75;10198990;28;1085;-71
2024/02/17 00:13:15;;;;;;;;;;;;;;;17.86;49.19;100404.22;10199129;28;1898;-71
2024/02/17 00:18:11;;;;;;;;;;;;;;;17.84;49.01;100408.66;10198458;28;807;-71
2024/02/17 00:23:07;;;;;;;;;;;;;;;17.83;49.21;100410.44;10198417;28;786;-71
2024/02/17 00:28:03;;;;;;;;;;;;;;;17.81;48.98;100416.69;10198399;28;871;-71
2024/02/17 00:32:59;;;;;;;;;;;;;;;17.80;49.07;100425.53;10198855;28;1326;-71
2024/02/17 00:37:55;;;;;;;;;;;;;;;17.78;49.32;100424.66;10205312;28;1967;-71
2024/02/17 00:42:50;;;;;;;;;;;;;;;17.76;49.15;100435.25;10211233;28;977;-71
2024/02/17 00:47:46;;;;;;;;;;;;;;;17.73;49.36;100430.94;10211015;28;884;-71
2024/02/17 00:52:42;;;;;;;;;;;;;;;17.72;49.35;100438.91;10210876;28;785;-71
2024/02/17 00:57:38;;;;;;;;;;;;;;;17.70;49.12;100438.94;10211298;28;1953;-71
2024/02/17 01:02:34;;;;;;;;;;;;;;;17.69;49.32;100444.28;10210630;28;976;-71
2024/02/17 01:07:30;;;;;;;;;;;;;;;17.67;49.38;100454.00;10210468;28;953;-71
2024/02/17 01:12:26;;;;;;;;;;;;;;;17.66;49.23;100460.22;10211169;28;853;-71
2024/02/17 01:17:22;;;;;;;;;;;;;;;17.65;49.22;100463.75;10210516;28;1952;-71
2024/02/17 01:22:17;;;;;;;;;;;;;;;17.63;49.22;100462.91;10210187;28;800;-71
2024/02/17 01:27:13;;;;;;;;;;;;;;;17.62;49.38;100482.28;10210065;28;854;-71
2024/02/17 01:32:09;;;;;;;;;;;;;;;17.59;49.17;100485.88;10209761;28;1457;-71
2024/02/17 01:37:05;;;;;;;;;;;;;;;17.58;49.34;100489.44;10209668;28;1910;-72
2024/02/17 01:42:01;;;;;;;;;;;;;;;17.58;49.32;100499.09;10209861;28;891;-71
2024/02/17 01:46:57;;;;;;;;;;;;;;;17.55;49.42;100497.41;10209456;28;853;-71
2024/02/17 01:51:53;;;;;;;;;;;;;;;17.53;49.50;100499.25;10202818;28;925;-71
2024/02/17 01:56:48;;;;;;;;;;;;;;;17.51;49.36;100501.06;10202780;28;1890;-71
2024/02/17 02:01:46;;;;;;;;;;;;;;;17.51;49.39;100506.34;10202584;28;842;-71
2024/02/17 02:06:42;;;;;;;;;;;;;;;17.49;49.27;100516.06;10202577;28;897;-71
2024/02/17 02:11:37;;;;;;;;;;;;;;;17.48;49.46;100519.63;10202461;28;846;-71
2024/02/17 02:16:36;;;;;;;;;;;;;;;17.48;49.38;100527.53;10202037;28;1891;-71
2024/02/17 02:21:32;;;;;;;;;;;;;;;17.46;49.46;100531.97;10202728;28;869;-71
2024/02/17 02:26:28;;;;;;;;;;;;;;;17.44;49.46;100526.75;10201257;28;1056;-71
2024/02/17 02:31:24;;;;;;;;;;;;;;;17.42;49.36;100531.22;10201933;28;1175;-71
2024/02/17 02:36:20;;;;;;;;;;;;;;;17.41;49.39;100541.78;10200936;28;1973;-71
2024/02/17 02:41:16;;;;;;;;;;;;;;;17.40;49.39;100543.56;10201338;28;863;-71
2024/02/17 02:46:12;;;;;;;;;;;;;;;17.39;49.47;100547.09;10201296;28;753;-71
2024/02/17 02:51:08;;;;;;;;;;;;;;;17.39;49.37;100554.13;10201768;28;849;-71
2024/02/17 02:56:04;;;;;;;;;;;;;;;17.37;49.41;100554.19;10201881;28;1899;-71
2024/02/17 03:01:00;;;;;;;;;;;;;;;17.36;49.31;100547.19;10199596;28;867;-71
2024/02/17 03:05:55;;;;;;;;;;;;;;;17.35;49.49;100556.00;10202000;28;950;-71
2024/02/17 03:10:51;;;;;;;;;;;;;;;17.31;49.57;100557.84;10200659;28;865;-72
2024/02/17 03:15:47;;;;;;;;;;;;;;;17.31;49.50;100565.75;10200101;28;1906;-71
2024/02/17 03:20:43;;;;;;;;;;;;;;;17.31;49.38;100575.44;10200160;28;875;-71
2024/02/17 03:25:40;;;;;;;;;;;;;;;17.29;49.53;100579.88;10200689;28;768;-71
2024/02/17 03:30:36;;;;;;;;;;;;;;;17.29;49.49;100591.31;10200304;28;1291;-71
2024/02/17 03:35:32;;;;;;;;;;;;;;;17.26;49.42;100588.72;10199671;28;1922;-71
2024/02/17 03:40:28;;;;;;;;;;;;;;;17.26;49.35;100596.63;10199490;28;919;-71
2024/02/17 03:45:23;;;;;;;;;;;;;;;17.25;49.46;100604.59;10200158;28;907;-71
2024/02/17 03:50:19;;;;;;;;;;;;;;;17.23;49.56;100609.91;10199279;28;876;-71
2024/02/17 03:55:15;;;;;;;;;;;;;;;17.22;49.50;100621.34;10199086;28;1902;-71
2024/02/17 04:00:13;;;;;;;;;;;;;;;17.21;49.38;100619.63;10198936;28;991;-71
2024/02/17 04:05:09;;;;;;;;;;;;;;;17.21;49.58;100630.19;10200062;28;780;-71
2024/02/17 04:10:05;;;;;;;;;;;;;;;17.20;49.29;100640.75;10198820;28;865;-72
2024/02/17 04:15:01;;;;;;;;;;;;;;;17.19;49.32;100658.31;10198027;28;1874;-71
2024/02/17 04:19:57;;;;;;;;;;;;;;;17.18;49.47;100668.88;10198456;28;873;-71
2024/02/17 04:24:53;;;;;;;;;;;;;;;17.17;49.45;100683.84;10197728;28;884;-71
2024/02/17 04:29:50;;;;;;;;;;;;;;;17.15;49.46;100683.00;10198743;28;1178;-71
2024/02/17 04:34:45;;;;;;;;;;;;;;;17.14;49.49;100681.28;10198113;28;1915;-71
2024/02/17 04:39:41;;;;;;;;;;;;;;;17.15;49.41;100695.31;10198315;28;806;-71
2024/02/17 04:44:37;;;;;;;;;;;;;;;17.12;49.33;100698.91;10197816;28;942;-71
2024/02/17 04:49:33;;;;;;;;;;;;;;;17.11;49.43;100698.91;10198324;28;806;-71
2024/02/17 04:54:29;;;;;;;;;;;;;;;17.11;49.35;100698.91;10198126;28;1902;-72
2024/02/17 04:59:25;;;;;;;;;;;;;;;17.14;49.49;100696.22;10197498;28;947;-71
2024/02/17 05:04:21;;;;;;;;;;;;;;;17.16;49.11;100700.56;10197902;28;858;-71
2024/02/17 05:09:17;;;;;;;;;;;;;;;17.16;49.28;100703.19;10197171;28;871;-71
2024/02/17 05:14:15;;;;;;;;;;;;;;;17.20;49.15;100715.38;10197041;28;1898;-71
2024/02/17 05:19:11;;;;;;;;;;;;;;;17.20;49.23;100715.38;10197000;28;893;-71
2024/02/17 05:24:07;;;;;;;;;;;;;;;17.23;49.17;100717.91;10198659;28;901;-71
2024/02/17 05:29:06;;;;;;;;;;;;;;;17.26;49.06;100725.75;10204016;28;1233;-71
2024/02/17 05:34:02;;;;;;;;;;;;;;;17.28;49.08;100731.84;10204102;28;1923;-71
2024/02/17 05:38:58;;;;;;;;;;;;;;;17.33;49.29;100741.41;10203316;28;859;-72
2024/02/17 05:43:54;;;;;;;;;;;;;;;17.35;49.23;100747.53;10203269;28;771;-71
2024/02/17 05:48:51;;;;;;;;;;;;;;;17.39;49.27;100751.78;10203108;28;874;-71
2024/02/17 05:53:47;;;;;;;;;;;;;;;17.41;49.29;100757.91;10202868;28;1918;-71
2024/02/17 05:58:44;;;;;;;;;;;;;;;17.42;49.17;100755.22;10202784;28;762;-71
2024/02/17 06:03:40;;;;;;;;;;;;;;;17.44;49.09;100760.44;10201979;28;968;-71
2024/02/17 06:08:36;;;;;;;;;;;;;;;17.47;49.00;100763.00;10203072;28;992;-71
2024/02/17 06:13:31;;;;;;;;;;;;;;;17.50;49.16;100768.19;10202168;28;1902;-71
2024/02/17 06:23:42;;;;;;;;;;;;;;;17.54;49.22;100788.31;10201523;28;616;-74
2024/02/17 06:28:38;;;;;;;;;;;;;;;17.56;49.43;100791.78;10201623;28;1091;-72
2024/02/17 06:33:34;;;;;;;;;;;;;;;17.57;49.42;100801.41;10202115;28;1918;-71
2024/02/17 06:38:30;;;;;;;;;;;;;;;17.60;49.27;100813.63;10202202;28;913;-72
2024/02/17 06:43:26;;;;;;;;;;;;;;;17.62;49.18;100819.75;10201790;28;800;-72
2024/02/17 06:48:22;;;;;;;;;;;;;;;17.64;49.33;100826.72;10201316;28;892;-72
2024/02/17 06:53:18;;;;;;;;;;;;;;;17.63;49.46;100842.56;10201175;28;913;-75
2024/02/17 06:58:14;;;;;;;;;;;;;;;17.61;49.38;100847.88;10200919;28;1886;-74
2024/02/17 07:03:10;;;;;;;;;;;;;;;17.61;49.30;100853.16;10201541;28;1603;-75
2024/02/17 07:08:07;;;;;;;;;;;;;;;17.61;49.23;100861.06;10200705;28;863;-75
2024/02/17 07:13:03;;;;;;;;;;;;;;;17.59;49.31;100875.19;10200849;28;884;-75
2024/02/17 07:18:03;;;;;;;;;;;;;;;17.57;49.17;100875.22;10200261;28;1882;-74
2024/02/17 07:22:59;;;;;;;;;;;;;;;17.55;49.22;100884.06;10200187;28;1041;-75
2024/02/17 07:27:58;;;;;;;;;;;;;;;17.53;49.18;100889.41;10200085;28;1235;-75
2024/02/17 07:32:54;;;;;;;;;;;;;;;17.50;49.02;100898.25;10200436;28;1343;-75
2024/02/17 07:37:50;;;;;;;;;;;;;;;17.50;49.26;100911.41;10199705;28;1980;-75
2024/02/17 07:42:47;;;;;;;;;;;;;;;17.50;49.09;100924.59;10199179;28;968;-75
2024/02/17 07:47:42;;;;;;;;;;;;;;;17.48;49.25;100929.03;10199187;28;881;-75
2024/02/17 07:52:39;;;;;;;;;;;;;;;17.48;49.05;100934.31;10199285;28;885;-75
2024/02/17 07:57:35;;;;;;;;;;;;;;;17.50;49.15;100944.78;10199087;28;1964;-74
2024/02/17 08:02:31;;;;;;;;;;;;;;;17.49;48.97;100957.13;10198882;28;858;-76
2024/02/17 08:07:27;;;;;;;;;;;;;;;17.48;49.09;100963.31;10198187;28;967;-75
2024/02/17 08:12:23;;;;;;;;;;;;;;;17.49;49.15;100970.28;10199306;28;875;-73
2024/02/17 08:17:19;;;;;;;;;;;;;;;17.55;49.17;100971.06;10199031;28;1959;-72
2024/02/17 08:22:15;;;;;;;;;;;;;;;17.59;49.24;100975.38;10198747;28;790;-72
2024/02/17 08:27:13;;;;;;;;;;;;;;;17.61;49.44;100986.75;10199220;28;791;-73
2024/02/17 08:32:09;;;;;;;;;;;;;;;17.63;49.44;100984.94;10197411;28;1128;-73
2024/02/17 08:37:05;;;;;;;;;;;;;;;17.61;49.50;100990.25;10197405;28;1910;-75
2024/02/17 08:42:01;;;;;;;;;;;;;;;17.60;49.32;100993.78;10198553;28;906;-78
2024/02/17 08:46:57;;;;;;;;;;;;;;;17.59;49.33;100999.97;10197869;28;1685;-76
2024/02/17 08:51:53;;;;;;;;;;;;;;;17.59;49.30;101010.50;10198343;28;782;-80
2024/02/17 08:56:49;;;;;;;;;;;;;;;17.59;49.13;101013.16;10198220;28;1947;-75
2024/02/17 09:01:45;;;;;;;;;;;;;;;17.58;49.08;101021.06;10205240;28;869;-76
2024/02/17 09:06:41;;;;;;;;;;;;;;;17.59;49.06;101022.81;10204465;28;893;-78
2024/02/17 09:11:37;;;;;;;;;;;;;;;17.59;49.16;101031.59;10204344;28;830;-76
2024/02/17 09:16:33;;;;;;;;;;;;;;;17.58;49.06;101040.41;10204708;28;1957;-75
2024/02/17 09:21:29;;;;;;;;;;;;;;;17.61;49.27;101042.13;10204613;28;885;-73
2024/02/17 09:26:24;;;;;;;;;;;;;;;17.66;49.39;101048.16;10204038;28;777;-74
2024/02/17 09:31:20;;;;;;;;;;;;;;;17.68;49.38;101048.97;10203446;28;1390;-76
2024/02/17 09:36:16;;;;;;;;;;;;;;;17.64;49.46;101050.81;10203760;28;1911;-76
2024/02/17 09:41:12;;;;;;;;;;;;;;;17.64;49.13;101061.38;10203480;28;811;-76
2024/02/17 09:46:09;;;;;;;;;;;;;;;17.64;49.18;101063.16;10203234;28;885;-74
2024/02/17 09:51:06;;;;;;;;;;;;;;;17.62;49.23;101081.63;10203047;28;810;-74
2024/02/17 09:56:02;;;;;;;;;;;;;;;17.64;49.18;101092.16;10203101;28;1890;-75
2024/02/17 10:00:58;;;;;;;;;;;;;;;17.64;49.10;101100.06;10202516;28;858;-75
2024/02/17 10:05:54;;;;;;;;;;;;;;;17.63;48.96;101112.38;10203260;28;873;-75
2024/02/17 10:10:50;;;;;;;;;;;;;;;17.64;48.96;101115.88;10202398;28;933;-75
2024/02/17 10:15:46;;;;;;;;;;;;;;;17.63;49.18;101115.00;10202803;28;1965;-74
2024/02/17 10:20:45;;;;;;;;;;;;;;;17.63;49.13;101120.28;10202170;28;767;-74
2024/02/17 10:25:41;;;;;;;;;;;;;;;17.63;49.01;101125.56;10201454;28;846;-74
2024/02/17 10:30:36;;;;;;;;;;;;;;;17.63;49.06;101137.84;10202026;28;1251;-74
2024/02/17 10:35:32;;;;;;;;;;;;;;;17.64;48.79;101150.16;10201596;28;1981;-74
2024/02/17 10:40:28;;;;;;;;;;;;;;;17.64;49.00;101145.75;10201582;28;964;-74
2024/02/17 10:45:24;;;;;;;;;;;;;;;17.63;48.99;101146.66;10201933;28;922;-74
2024/02/17 10:50:20;;;;;;;;;;;;;;;17.65;48.88;101151.88;10200908;28;964;-75
2024/02/17 10:55:16;;;;;;;;;;;;;;;17.63;48.86;101157.22;10201677;28;1894;-74
2024/02/17 11:00:12;;;;;;;;;;;;;;;17.64;48.81;101164.19;10202788;28;802;-74
2024/02/17 11:05:08;;;;;;;;;;;;;;;17.62;48.98;101160.72;10200820;28;976;-74
2024/02/17 11:10:04;;;;;;;;;;;;;;;17.63;48.95;101162.47;10201252;28;842;-74
2024/02/17 11:15:00;;;;;;;;;;;;;;;17.65;48.80;101167.69;10200370;28;1894;-74
2024/02/17 11:19:55;;;;;;;;;;;;;;;17.65;48.75;101159.78;10199877;28;919;-74
2024/02/17 11:24:51;;;;;;;;;;;;;;;17.64;48.84;101169.47;10199722;28;941;-74
2024/02/17 11:29:47;;;;;;;;;;;;;;;17.65;48.79;101171.19;10200453;28;1248;-74
2024/02/17 11:34:43;;;;;;;;;;;;;;;17.64;48.79;101172.13;10199845;28;1914;-74
2024/02/17 11:39:39;;;;;;;;;;;;;;;17.63;48.94;101185.31;10199724;28;802;-74
2024/02/17 11:44:35;;;;;;;;;;;;;;;17.64;48.79;101169.47;10189483;28;3085;-74
2024/02/17 11:49:34;;;;;;;;;;;;;;;17.73;48.95;101173.69;10156619;28;3430;-70
2024/02/17 11:54:30;;;;;;;;;;;;;;;17.74;49.38;101171.03;10158609;28;2899;-75
2024/02/17 11:59:29;;;;;;;;;;;;;;;17.72;49.26;101179.88;10135981;28;2901;-75
2024/02/17 12:04:25;;;;;;;;;;;;;;;17.69;49.15;101188.72;10152016;28;3007;-75
2024/02/17 12:09:20;;;;;;;;;;;;;;;17.68;49.37;101187.00;10157831;28;3013;-75
2024/02/17 12:14:16;;;;;;;;;;;;;;;17.69;49.21;101196.63;10156685;28;3021;-75
2024/02/17 12:19:14;;;;;;;;;;;;;;;17.70;49.19;101194.84;10157782;28;3023;-76
2024/02/17 12:24:10;;;;;;;;;;;;;;;17.68;48.96;101197.53;10157900;28;2897;-75
2024/02/17 12:29:06;;;;;;;;;;;;;;;17.68;49.00;101201.91;10156020;28;3032;-75
2024/02/17 12:34:02;;;;;;;;;;;;;;;17.68;48.96;101199.28;10146898;28;3020;-76
2024/02/17 12:38:58;;;;;;;;;;;;;;;17.68;49.00;101200.19;10153695;28;3091;-76
2024/02/17 12:43:54;;;;;;;;;;;;;;;17.67;48.82;101210.75;10128212;28;2925;-76
2024/02/17 12:48:50;;;;;;;;;;;;;;;17.68;49.06;101220.38;10118970;28;2983;-75
2024/02/17 12:53:46;;;;;;;;;;;;;;;17.68;48.99;101223.00;10118666;28;3024;-75
2024/02/17 12:58:42;;;;;;;;;;;;;;;17.68;48.90;101217.75;10135300;28;2922;-76
2024/02/17 13:03:38;;;;;;;;;;;;;;;17.68;48.82;101221.28;10156592;28;2926;-75
2024/02/17 13:08:34;;;;;;;;;;;;;;;17.69;48.85;101228.28;10155104;28;3017;-75
2024/02/17 13:13:31;;;;;;;;;;;;;;;17.68;48.94;101226.53;10156289;28;3000;-75
2024/02/17 13:18:27;;;;;;;;;;;;;;;17.69;48.89;101224.78;10156132;28;2969;-76
2024/02/17 13:23:23;;;;;;;;;;;;;;;17.71;48.92;101226.47;10153783;28;2900;-76
2024/02/17 13:28:18;;;;;;;;;;;;;;;17.70;49.00;101226.50;10158784;28;2962;-74
2024/02/17 13:33:16;;;;;;;;;;;;;;;17.83;49.51;101232.44;10156218;28;2885;-73
2024/02/17 13:38:12;;;;;;;;;;;;;;;17.91;49.82;101238.44;10153795;28;2912;-71
2024/02/17 13:43:08;;;;;;;;;;;;;;;17.93;49.73;101237.50;10154562;28;2909;-75
2024/02/17 13:48:04;;;;;;;;;;;;;;;18.00;50.00;101240.91;10161598;28;2759;-79
2024/02/17 13:53:01;;;;;;;;;;;;;;;18.07;50.32;101238.97;10160749;28;2949;-74
2024/02/17 13:57:56;;;;;;;;;;;;;;;18.04;50.21;101234.63;10145833;28;2838;-80
2024/02/17 14:02:52;;;;;;;;;;;;;;;17.99;50.03;101243.56;10161749;28;3481;-74
2024/02/17 14:07:48;;;;;;;;;;;;;;;18.04;50.39;101236.41;10161568;28;2897;-84
2024/02/17 14:12:45;;;;;;;;;;;;;;;18.05;50.05;101240.78;10160099;28;3021;-76
2024/02/17 14:17:41;;;;;;;;;;;;;;;18.01;49.97;101244.41;10160807;28;2902;-77
2024/02/17 14:22:37;;;;;;;;;;;;;;;18.10;50.07;101239.81;10159653;28;3095;-79
2024/02/17 14:27:35;;;;;;;;;;;;;;;18.10;50.09;101241.56;10159902;28;2842;-84
2024/02/17 14:32:31;;;;;;;;;;;;;;;18.08;50.33;101246.00;10153536;28;2950;-72
2024/02/17 14:37:27;;;;;;;;;;;;;;;18.07;50.17;101241.63;10159211;28;2984;-76
2024/02/17 14:42:23;;;;;;;;;;;;;;;18.08;50.27;101248.66;10160561;28;2943;-74
2024/02/17 14:47:19;;;;;;;;;;;;;;;18.09;50.30;101261.78;10158993;28;2956;-81
2024/02/17 14:52:15;;;;;;;;;;;;;;;18.09;50.36;101276.75;10159641;28;2853;-85
2024/02/17 14:57:11;;;;;;;;;;;;;;;17.99;49.54;101264.66;10157284;28;2894;-80
2024/02/17 15:02:07;;;;;;;;;;;;;;;17.82;49.14;101276.41;10159858;28;2853;-79
2024/02/17 15:07:03;;;;;;;;;;;;;;;17.59;48.53;101279.44;10159624;28;2881;-81
2024/02/17 15:11:59;;;;;;;;;;;;;;;17.48;48.41;101284.91;10158525;28;3399;-77
2024/02/17 15:16:55;;;;;;;;;;;;;;;17.40;49.23;101283.31;10152918;28;2933;-80
2024/02/17 15:21:50;;;;;;;;;;;;;;;17.35;49.43;101287.78;10159337;28;2984;-79
2024/02/17 15:26:46;;;;;;;;;;;;;;;17.27;49.50;101286.13;10154684;28;2893;-82
2024/02/17 15:31:42;;;;;;;;;;;;;;;17.21;49.55;101288.00;10159210;28;2971;-79
2024/02/17 15:36:38;;;;;;;;;;;;;;;17.12;49.51;101288.16;10159194;28;2953;-85
2024/02/17 15:41:34;;;;;;;;;;;;;;;17.08;49.62;101289.94;10161691;28;3391;-87
2024/02/17 15:46:30;;;;;;;;;;;;;;;16.99;49.92;101285.69;10184619;28;2878;-77
2024/02/17 15:51:26;;;;;;;;;;;;;;;17.01;49.97;101294.47;10157760;28;2873;-84
2024/02/17 15:56:22;;;;;;;;;;;;;;;17.03;49.97;101297.09;10157939;28;3010;-75
2024/02/17 16:01:17;;;;;;;;;;;;;;;17.00;50.16;101297.09;10157763;28;2837;-74
2024/02/17 16:06:13;;;;;;;;;;;;;;;16.98;50.04;101304.19;10156811;28;3037;-86
2024/02/17 16:11:11;;;;;;;;;;;;;;;16.95;49.98;101299.81;10157470;28;2977;-83
2024/02/17 16:16:08;;;;;;;;;;;;;;;16.93;50.17;101303.38;10156700;28;2884;-83
2024/02/17 16:21:04;;;;;;;;;;;;;;;17.10;50.26;101306.59;10157727;28;2941;-81
2024/02/17 16:26:00;;;;;;;;;;;;;;;17.17;50.54;101304.75;10156058;28;2962;-72
2024/02/17 16:30:56;;;;;;;;;;;;;;;17.23;50.55;101310.78;10157774;28;1408;-78
2024/02/17 16:35:52;;;;;;;;;;;;;;;17.28;50.30;101303.69;10158890;28;1918;-75
2024/02/17 16:40:48;;;;;;;;;;;;;;;17.33;50.66;101315.91;10158278;28;795;-76
2024/02/17 16:45:44;;;;;;;;;;;;;;;17.36;50.18;101319.38;10158707;28;794;-77
2024/02/17 16:50:40;;;;;;;;;;;;;;;17.42;50.33;101321.91;10158101;28;859;-75
2024/02/17 16:55:36;;;;;;;;;;;;;;;17.45;50.38;101321.00;10158397;28;1923;-76
2024/02/17 17:00:31;;;;;;;;;;;;;;;17.50;50.43;101319.13;10157807;28;874;-76
2024/02/17 17:05:27;;;;;;;;;;;;;;;17.53;50.43;101324.38;10157663;28;867;-76
2024/02/17 17:10:23;;;;;;;;;;;;;;;17.57;50.70;101333.09;10158122;28;810;-75
2024/02/17 17:15:19;;;;;;;;;;;;;;;17.58;50.45;101338.34;10156765;28;1946;-78
2024/02/17 17:20:17;;;;;;;;;;;;;;;17.58;50.42;101337.44;10159874;28;802;-82
2024/02/17 17:25:13;;;;;;;;;;;;;;;17.58;50.39;101332.19;10164051;28;873;-82
2024/02/17 17:30:10;;;;;;;;;;;;;;;17.57;50.31;101338.38;10164272;28;1221;-81
2024/02/17 17:35:05;;;;;;;;;;;;;;;17.57;50.22;101346.28;10164378;28;1910;-79
2024/02/17 17:40:02;;;;;;;;;;;;;;;17.57;50.21;101347.13;10163907;28;1008;-79
2024/02/17 17:44:58;;;;;;;;;;;;;;;17.57;50.09;101347.13;10164156;28;883;-79
2024/02/17 17:49:54;;;;;;;;;;;;;;;17.57;50.00;101347.13;10162854;28;897;-79
2024/02/17 17:54:51;;;;;;;;;;;;;;;17.58;50.05;101354.16;10163159;28;1953;-70
2024/02/17 17:59:47;;;;;;;;;;;;;;;17.63;50.15;101359.34;10164264;28;865;-71
2024/02/17 18:04:43;;;;;;;;;;;;;;;17.64;50.32;101358.47;10162174;28;900;-71
2024/02/17 18:09:39;;;;;;;;;;;;;;;17.65;50.21;101361.06;10163676;28;867;-77
2024/02/17 18:14:36;;;;;;;;;;;;;;;17.67;50.28;101347.84;10162943;28;1898;-75
2024/02/17 18:19:32;;;;;;;;;;;;;;;17.68;50.31;101358.41;10161633;28;889;-74
2024/02/17 18:24:27;;;;;;;;;;;;;;;17.70;50.48;101356.56;10161459;28;1439;-74
2024/02/17 18:29:23;;;;;;;;;;;;;;;17.71;50.54;101355.69;10161665;28;1447;-74
2024/02/17 18:34:19;;;;;;;;;;;;;;;17.72;50.22;101351.28;10161114;28;1970;-74
2024/02/17 18:39:15;;;;;;;;;;;;;;;17.73;50.17;101353.88;10206210;28;1215;-74
2024/02/17 18:44:11;;;;;;;;;;;;;;;17.74;50.32;101350.38;10370338;28;972;-78
2024/02/17 18:49:07;;;;;;;;;;;;;;;17.73;50.26;101353.00;10370764;28;852;-84
2024/02/17 18:54:03;;;;;;;;;;;;;;;17.72;50.30;101351.28;10369888;28;1889;-85
2024/02/17 18:58:59;;;;;;;;;;;;;;;17.70;50.14;101347.81;10369718;28;948;-85
2024/02/17 19:03:55;;;;;;;;;;;;;;;17.69;50.28;101354.84;10369822;28;814;-86
2024/02/17 19:08:51;;;;;;;;;;;;;;;17.67;50.23;101347.84;10369955;28;881;-86
2024/02/17 19:13:47;;;;;;;;;;;;;;;17.67;50.13;101358.41;10370050;28;847;-85
2024/02/17 19:18:43;;;;;;;;;;;;;;;17.65;50.10;101355.78;10369249;28;778;-86
2024/02/17 19:23:39;;;;;;;;;;;;;;;17.65;50.09;101357.56;10369394;28;994;-86
2024/02/17 19:28:35;;;;;;;;;;;;;;;17.64;50.09;101364.59;10368549;28;1101;-86
2024/02/17 19:33:31;;;;;;;;;;;;;;;17.64;49.89;101364.59;10369381;28;900;-86
2024/02/17 19:38:27;;;;;;;;;;;;;;;17.64;50.00;101372.50;10368390;28;1910;-86
2024/02/17 19:43:23;;;;;;;;;;;;;;;17.64;49.91;101380.44;10367292;28;908;-86
2024/02/17 19:48:18;;;;;;;;;;;;;;;17.64;50.10;101375.16;10368470;28;852;-86
2024/02/17 19:53:16;;;;;;;;;;;;;;;17.64;49.78;101376.94;10367653;28;1056;-85
2024/02/17 19:58:12;;;;;;;;;;;;;;;17.63;49.97;101373.41;10368128;28;1906;-86
2024/02/17 20:03:08;;;;;;;;;;;;;;;17.63;49.91;101373.41;10367403;28;949;-85
2024/02/17 20:08:04;;;;;;;;;;;;;;;17.65;49.78;101387.44;10368330;28;877;-85
2024/02/17 20:13:00;;;;;;;;;;;;;;;17.65;49.88;101386.56;10367609;28;905;-86
2024/02/17 20:17:57;;;;;;;;;;;;;;;17.64;49.75;101393.59;10366880;28;1898;-86
2024/02/17 20:22:53;;;;;;;;;;;;;;;17.66;49.97;101397.09;10366940;28;881;-86
2024/02/17 20:27:49;;;;;;;;;;;;;;;17.66;49.70;101390.97;10367189;28;885;-86
2024/02/17 20:32:45;;;;;;;;;;;;;;;17.66;49.65;101393.59;10367757;28;1321;-86
2024/02/17 20:37:40;;;;;;;;;;;;;;;17.65;49.90;101392.69;10366958;28;1909;-86
2024/02/17 20:42:36;;;;;;;;;;;;;;;17.66;49.70;101389.19;10366076;28;775;-86
2024/02/17 20:47:32;;;;;;;;;;;;;;;17.66;49.73;101391.81;10366806;28;843;-86
2024/02/17 20:52:28;;;;;;;;;;;;;;;17.66;49.83;101391.81;10366219;28;833;-84
2024/02/17 20:57:25;;;;;;;;;;;;;;;17.65;49.86;101392.69;10375270;28;1968;-86
2024/02/17 21:02:22;;;;;;;;;;;;;;;17.64;49.90;101396.25;10374393;28;933;-87
2024/02/17 21:07:18;;;;;;;;;;;;;;;17.64;49.88;101390.97;10374380;28;796;-86
2024/02/17 21:12:14;;;;;;;;;;;;;;;17.64;49.62;101385.69;10374606;28;861;-86
2024/02/17 21:17:10;;;;;;;;;;;;;;;17.63;49.67;101383.06;10373652;28;1949;-87
2024/02/17 21:22:05;;;;;;;;;;;;;;;17.63;49.58;101389.25;10373804;28;891;-86
2024/02/17 21:27:01;;;;;;;;;;;;;;;17.63;49.76;101389.25;10373272;28;775;-87
2024/02/17 21:31:57;;;;;;;;;;;;;;;17.64;49.83;101395.38;10372761;28;1465;-81
2024/02/17 21:36:53;;;;;;;;;;;;;;;17.62;49.63;101398.03;10372864;28;1966;-84
2024/02/17 21:41:49;;;;;;;;;;;;;;;17.63;49.50;101399.78;10372837;28;917;-84
2024/02/17 21:46:45;;;;;;;;;;;;;;;17.62;49.64;101395.41;10372079;28;1074;-85
2024/02/17 21:51:41;;;;;;;;;;;;;;;17.61;49.70;101401.56;10372474;28;785;-85
2024/02/17 21:56:37;;;;;;;;;;;;;;;17.62;49.62;101407.72;10371543;28;1952;-84
2024/02/17 22:01:33;;;;;;;;;;;;;;;17.60;49.69;101393.69;10372357;28;806;-84
2024/02/17 22:06:29;;;;;;;;;;;;;;;17.60;49.76;101398.94;10370742;28;979;-84
2024/02/17 22:11:25;;;;;;;;;;;;;;;17.58;49.77;101395.47;10372943;28;794;-79
2024/02/17 22:16:21;;;;;;;;;;;;;;;17.56;49.62;101390.22;10371641;28;1955;-79
2024/02/17 22:21:17;;;;;;;;;;;;;;;17.54;49.61;101386.75;10371554;28;974;-80
2024/02/17 22:26:15;;;;;;;;;;;;;;;17.52;49.50;101373.56;10371392;28;770;-80
2024/02/17 22:31:11;;;;;;;;;;;;;;;17.51;49.49;101370.97;10371238;28;1328;-80
2024/02/17 22:36:07;;;;;;;;;;;;;;;17.49;49.50;101367.50;10370959;28;1971;-80
2024/02/17 22:41:03;;;;;;;;;;;;;;;17.48;49.72;101365.75;10370844;28;798;-79
2024/02/17 22:45:59;;;;;;;;;;;;;;;17.45;49.51;101364.03;10370019;28;873;-80
2024/02/17 22:50:55;;;;;;;;;;;;;;;17.43;49.75;101363.19;10370313;28;828;-80
2024/02/17 22:55:51;;;;;;;;;;;;;;;17.42;49.49;101361.47;10371094;28;1894;-79
2024/02/17 23:00:47;;;;;;;;;;;;;;;17.41;49.57;101356.19;10370481;28;793;-79
2024/02/17 23:05:43;;;;;;;;;;;;;;;17.40;49.65;101354.47;10370347;28;946;-80
2024/02/17 23:10:39;;;;;;;;;;;;;;;17.38;49.41;101359.75;10370265;28;897;-80
2024/02/17 23:15:36;;;;;;;;;;;;;;;17.38;49.58;101350.97;10369289;28;1893;-80
2024/02/17 23:20:31;;;;;;;;;;;;;;;17.36;49.61;101342.22;10369745;28;884;-80
2024/02/17 23:25:27;;;;;;;;;;;;;;;17.33;49.67;101347.56;10369663;28;864;-80
2024/02/17 23:30:23;;;;;;;;;;;;;;;17.30;49.61;101344.06;10369405;28;1199;-79
2024/02/17 23:35:19;;;;;;;;;;;;;;;17.29;49.45;101347.59;10367790;28;1910;-80
2024/02/17 23:40:15;;;;;;;;;;;;;;;17.27;49.71;101344.13;10369081;28;883;-79
2024/02/17 23:45:11;;;;;;;;;;;;;;;17.25;49.47;101345.03;10368294;28;777;-80
2024/02/17 23:50:07;;;;;;;;;;;;;;;17.22;49.57;101340.69;10368106;28;785;-80
2024/02/17 23:55:03;;;;;;;;;;;;;;;17.19;49.68;101332.81;10367398;28;1894;-80
2024/02/17 23:59:59;;;;;;;;;;;;;;;17.18;49.72;101328.44;10369085;28;935;-80
